createdAt,value
2022-10-17T00:03:01.021Z,2.33
2022-10-17T00:06:11.205Z,2.28
2022-10-17T00:09:12.954Z,2.30
2022-10-17T00:12:14.716Z,2.35
2022-10-17T00:15:19.075Z,2.63
2022-10-17T00:18:20.768Z,2.60
2022-10-17T00:21:26.268Z,2.17
2022-10-17T00:24:28.118Z,2.70
2022-10-17T00:27:30.022Z,2.15
2022-10-17T00:30:33.009Z,2.55
2022-10-17T00:33:35.794Z,2.58
2022-10-17T00:36:38.225Z,2.38
2022-10-17T00:39:39.953Z,2.63
2022-10-17T00:42:42.482Z,2.85
2022-10-17T00:45:44.431Z,2.53
2022-10-17T00:48:49.213Z,2.78
2022-10-17T00:51:53.952Z,2.47
2022-10-17T00:54:59.693Z,2.78
2022-10-17T00:58:03.978Z,1.98
2022-10-17T01:01:07.506Z,1.98
2022-10-17T01:04:10.370Z,2.17
2022-10-17T01:07:14.912Z,2.42
2022-10-17T01:10:17.583Z,2.70
2022-10-17T01:13:31.388Z,2.00
2022-10-17T01:16:49.394Z,1.88
2022-10-17T01:20:18.099Z,2.55
2022-10-17T01:23:50.481Z,2.30
2022-10-17T01:27:17.239Z,2.88
2022-10-17T01:30:43.955Z,2.65
2022-10-17T01:34:06.359Z,3.15
2022-10-17T01:37:39.743Z,2.63
2022-10-17T01:40:54.237Z,2.05
2022-10-17T01:44:00.813Z,2.80
2022-10-17T01:47:06.493Z,2.55
2022-10-17T01:50:15.372Z,2.53
2022-10-17T01:53:26.071Z,2.53
2022-10-17T01:56:29.722Z,2.53
2022-10-17T01:59:40.092Z,2.60
2022-10-17T02:02:44.227Z,2.67
2022-10-17T02:05:46.243Z,2.45
2022-10-17T02:08:50.985Z,2.22
2022-10-17T02:12:25.289Z,2.40
2022-10-17T02:15:55.101Z,2.10
2022-10-17T02:19:15.795Z,2.70
2022-10-17T02:22:42.874Z,2.05
2022-10-17T02:25:54.660Z,2.17
2022-10-17T02:28:56.697Z,1.60
2022-10-17T02:32:11.896Z,3.10
2022-10-17T02:35:15.303Z,2.25
2022-10-17T02:38:18.537Z,2.15
2022-10-17T02:41:22.340Z,1.98
2022-10-17T02:44:27.126Z,2.28
2022-10-17T02:47:39.573Z,2.75
2022-10-17T02:51:07.641Z,2.05
2022-10-17T02:54:15.767Z,2.03
2022-10-17T02:57:30.876Z,1.88
2022-10-17T03:00:34.235Z,2.13
2022-10-17T03:03:36.103Z,2.55
2022-10-17T03:06:38.590Z,2.15
2022-10-17T03:09:50.202Z,1.75
2022-10-17T03:12:53.396Z,2.03
2022-10-17T03:15:58.961Z,2.42
2022-10-17T03:19:01.131Z,2.15
2022-10-17T03:22:03.658Z,2.72
2022-10-17T03:25:07.422Z,3.08
2022-10-17T03:28:12.409Z,1.92
2022-10-17T03:31:16.185Z,2.25
2022-10-17T03:34:19.055Z,2.28
2022-10-17T03:37:21.909Z,2.47
2022-10-17T03:40:24.903Z,2.72
2022-10-17T03:43:29.198Z,2.17
2022-10-17T03:46:31.463Z,2.00
2022-10-17T03:49:35.351Z,2.70
2022-10-17T03:52:37.553Z,2.13
2022-10-17T03:55:39.661Z,2.13
2022-10-17T03:58:46.242Z,1.93
2022-10-17T04:01:49.325Z,2.00
2022-10-17T04:04:51.505Z,2.80
2022-10-17T04:07:53.513Z,2.22
2022-10-17T04:11:08.956Z,1.85
2022-10-17T04:14:11.504Z,2.00
2022-10-17T04:17:14.563Z,2.30
2022-10-17T04:20:17.046Z,2.42
2022-10-17T04:23:19.491Z,1.90
2022-10-17T04:26:21.609Z,2.35
2022-10-17T04:29:25.524Z,1.90
2022-10-17T04:32:32.010Z,2.25
2022-10-17T04:35:42.797Z,2.42
2022-10-17T04:38:46.213Z,2.17
2022-10-17T04:41:48.059Z,2.60
2022-10-17T04:44:51.627Z,2.53
2022-10-17T04:47:54.195Z,1.73
2022-10-17T04:50:56.640Z,2.50
2022-10-17T04:54:17.696Z,2.03
2022-10-17T04:57:23.961Z,2.47
2022-10-17T05:00:34.703Z,2.10
2022-10-17T05:03:46.820Z,1.92
2022-10-17T05:06:49.096Z,2.55
2022-10-17T05:10:09.960Z,1.88
2022-10-17T05:13:13.782Z,2.30
2022-10-17T05:16:16.388Z,2.08
2022-10-17T05:19:19.202Z,2.17
2022-10-17T05:22:24.616Z,2.03
2022-10-17T05:25:27.008Z,2.70
2022-10-17T05:28:29.285Z,1.92
2022-10-17T05:31:35.819Z,2.55
2022-10-17T05:34:37.771Z,2.67
2022-10-17T05:37:41.779Z,2.03
2022-10-17T05:40:45.165Z,1.73
2022-10-17T05:43:47.969Z,2.55
2022-10-17T05:46:54.426Z,2.17
2022-10-17T05:49:57.286Z,2.40
2022-10-17T05:53:07.120Z,2.25
2022-10-17T05:56:15.068Z,1.88
2022-10-17T05:59:18.135Z,2.40
2022-10-17T06:02:32.370Z,2.53
2022-10-17T06:05:35.664Z,2.78
2022-10-17T06:08:38.661Z,2.20
2022-10-17T06:11:43.259Z,2.65
2022-10-17T06:14:46.037Z,2.63
2022-10-17T06:17:49.236Z,2.28
2022-10-17T06:20:51.382Z,3.17
2022-10-17T06:23:54.853Z,2.65
2022-10-17T06:27:09.354Z,3.17
2022-10-17T06:30:16.239Z,4.05
2022-10-17T06:33:21.405Z,3.33
2022-10-17T06:36:23.679Z,3.67
2022-10-17T06:39:27.457Z,4.90
2022-10-17T06:42:39.532Z,5.38
2022-10-17T06:45:59.976Z,3.38
2022-10-17T06:49:10.114Z,4.70
2022-10-17T06:52:17.649Z,3.65
2022-10-17T06:55:43.732Z,4.00
2022-10-17T06:58:59.128Z,4.13
2022-10-17T07:02:06.547Z,3.67
2022-10-17T07:05:08.990Z,5.50
2022-10-17T07:08:11.564Z,6.25
2022-10-17T07:11:19.465Z,3.75
2022-10-17T07:14:24.095Z,3.72
2022-10-17T07:17:25.808Z,3.83
2022-10-17T07:20:28.142Z,3.97
2022-10-17T07:23:30.975Z,3.55
2022-10-17T07:26:33.119Z,4.32
2022-10-17T07:29:36.238Z,3.83
2022-10-17T07:32:47.507Z,3.00
2022-10-17T07:35:49.449Z,4.50
2022-10-17T07:38:51.319Z,4.53
2022-10-17T07:41:54.560Z,3.83
2022-10-17T07:44:58.357Z,4.65
2022-10-17T07:48:02.112Z,4.40
2022-10-17T07:51:07.503Z,4.43
2022-10-17T07:54:09.410Z,4.50
2022-10-17T07:57:11.276Z,3.72
2022-10-17T08:00:13.298Z,3.25
2022-10-17T08:03:16.096Z,3.53
2022-10-17T08:06:18.887Z,3.35
2022-10-17T08:09:20.958Z,3.13
2022-10-17T08:12:22.798Z,3.10
2022-10-17T08:15:29.401Z,2.95
2022-10-17T08:18:34.579Z,2.50
2022-10-17T08:21:36.460Z,3.20
2022-10-17T08:24:38.110Z,3.05
2022-10-17T08:27:39.898Z,2.50
2022-10-17T08:30:41.630Z,2.65
2022-10-17T08:33:43.412Z,2.72
2022-10-17T08:36:45.163Z,2.17
2022-10-17T08:39:47.112Z,3.10
2022-10-17T08:43:04.105Z,2.58
2022-10-17T08:46:07.133Z,3.00
2022-10-17T08:49:19.844Z,2.97
2022-10-17T08:53:03.172Z,2.53
2022-10-17T08:56:30.326Z,2.65
2022-10-17T08:59:43.531Z,2.97
2022-10-17T09:03:02.046Z,2.90
2022-10-17T09:06:25.299Z,2.80
2022-10-17T09:09:34.328Z,2.83
2022-10-17T09:12:48.637Z,2.90
2022-10-17T09:16:07.600Z,2.25
2022-10-17T09:19:20.242Z,2.88
2022-10-17T09:22:25.452Z,3.28
2022-10-17T09:25:28.650Z,2.85
2022-10-17T09:28:36.639Z,2.78
2022-10-17T09:31:45.603Z,2.80
2022-10-17T09:34:47.481Z,2.83
2022-10-17T09:37:51.131Z,3.13
2022-10-17T09:40:58.650Z,3.13
2022-10-17T09:44:15.577Z,2.65
2022-10-17T09:47:23.998Z,3.15
2022-10-17T09:50:28.965Z,3.95
2022-10-17T09:53:35.347Z,3.22
2022-10-17T09:57:01.142Z,3.40
2022-10-17T10:00:05.979Z,3.15
2022-10-17T10:03:23.486Z,2.97
2022-10-17T10:06:25.277Z,3.00
2022-10-17T10:09:30.561Z,2.63
2022-10-17T10:12:38.346Z,2.83
2022-10-17T10:15:42.454Z,2.70
2022-10-17T10:18:47.439Z,3.47
2022-10-17T10:21:57.408Z,3.78
2022-10-17T10:25:11.463Z,3.60
2022-10-17T10:28:16.371Z,2.67
2022-10-17T10:31:29.681Z,2.78
2022-10-17T10:34:34.532Z,2.55
2022-10-17T10:37:46.440Z,3.00
2022-10-17T10:40:50.506Z,2.38
2022-10-17T10:43:53.348Z,2.47
2022-10-17T10:47:20.187Z,2.63
2022-10-17T10:50:40.588Z,2.53
2022-10-17T10:54:21.596Z,2.50
2022-10-17T10:57:27.117Z,2.03
2022-10-17T11:00:31.427Z,2.45
2022-10-17T11:03:42.471Z,2.17
2022-10-17T11:06:45.945Z,2.22
2022-10-17T11:10:22.074Z,2.03
2022-10-17T11:13:29.179Z,2.30
2022-10-17T11:16:44.645Z,2.15
2022-10-17T11:19:56.582Z,1.95
2022-10-17T11:23:15.009Z,1.83
2022-10-17T11:26:26.148Z,2.33
2022-10-17T11:29:31.086Z,2.35
2022-10-17T11:32:48.904Z,2.25
2022-10-17T11:35:52.774Z,2.13
2022-10-17T11:39:06.154Z,2.60
2022-10-17T11:42:13.037Z,2.45
2022-10-17T11:45:18.700Z,2.67
2022-10-17T11:48:28.653Z,1.95
2022-10-17T11:55:30.962Z,1.95
2022-10-17T11:58:50.451Z,2.17
2022-10-17T12:01:56.371Z,2.03
2022-10-17T12:05:10.329Z,2.30
2022-10-17T12:08:32.004Z,1.70
2022-10-17T12:11:46.365Z,2.15
2022-10-17T12:14:48.111Z,2.03
2022-10-17T12:18:04.000Z,1.67
2022-10-17T12:21:06.005Z,1.80
2022-10-17T12:24:45.832Z,1.67
2022-10-17T12:27:50.242Z,1.98
2022-10-17T12:31:02.392Z,2.42
2022-10-17T12:34:05.076Z,1.98
2022-10-17T12:37:11.563Z,1.80
2022-10-17T12:40:35.453Z,1.95
2022-10-17T12:43:54.955Z,1.42
2022-10-17T12:47:05.823Z,1.80
2022-10-17T12:50:46.237Z,1.88
2022-10-17T12:53:57.461Z,1.25
2022-10-17T12:56:59.238Z,1.85
2022-10-17T13:00:23.059Z,1.95
2022-10-17T13:03:29.411Z,2.03
2022-10-17T13:06:32.294Z,1.58
2022-10-17T13:09:39.809Z,1.90
2022-10-17T13:12:41.757Z,2.05
2022-10-17T13:15:52.360Z,1.88
2022-10-17T13:18:54.319Z,1.65
2022-10-17T13:22:06.432Z,1.77
2022-10-17T13:25:17.121Z,2.25
2022-10-17T13:28:19.026Z,1.95
2022-10-17T13:31:37.419Z,2.03
2022-10-17T13:34:39.326Z,1.42
2022-10-17T13:37:43.202Z,1.80
2022-10-17T13:40:50.023Z,1.83
2022-10-17T13:43:53.482Z,2.30
2022-10-17T13:46:55.326Z,2.00
2022-10-17T13:49:58.497Z,1.83
2022-10-17T13:53:18.525Z,1.92
2022-10-17T13:56:29.515Z,1.98
2022-10-17T13:59:43.067Z,1.75
2022-10-17T14:02:45.288Z,1.75
2022-10-17T14:06:16.636Z,2.15
2022-10-17T14:09:25.694Z,1.50
2022-10-17T14:12:27.965Z,1.95
2022-10-17T14:15:31.774Z,2.08
2022-10-17T14:18:36.688Z,1.50
2022-10-17T14:21:44.319Z,2.03
2022-10-17T14:24:47.315Z,2.00
2022-10-17T14:28:17.112Z,1.60
2022-10-17T14:31:22.526Z,1.80
2022-10-17T14:34:29.298Z,1.83
2022-10-17T14:37:48.168Z,1.65
2022-10-17T14:40:51.758Z,2.08
2022-10-17T14:43:59.850Z,1.92
2022-10-17T14:47:30.118Z,2.17
2022-10-17T14:50:29.423Z,1.83
2022-10-17T14:53:31.478Z,3.25
2022-10-17T14:56:41.767Z,2.80
2022-10-17T14:59:59.384Z,3.40
2022-10-17T15:03:01.556Z,2.67
2022-10-17T15:06:20.924Z,2.30
2022-10-17T15:09:24.073Z,2.70
2022-10-17T15:12:26.973Z,2.50
2022-10-17T15:15:30.582Z,3.05
2022-10-17T15:18:32.713Z,2.35
2022-10-17T15:21:39.517Z,2.15
2022-10-17T15:24:46.586Z,2.55
2022-10-17T15:27:48.427Z,3.40
2022-10-17T15:30:50.453Z,4.03
2022-10-17T15:33:53.733Z,3.75
2022-10-17T15:36:55.718Z,3.67
2022-10-17T15:39:58.114Z,2.78
2022-10-17T15:42:59.998Z,2.47
2022-10-17T15:46:02.022Z,2.75
2022-10-17T15:49:10.839Z,2.40
2022-10-17T15:52:12.891Z,3.05
2022-10-17T15:55:14.899Z,4.68
2022-10-17T15:58:18.097Z,3.55
2022-10-17T16:01:39.060Z,2.60
2022-10-17T16:04:41.465Z,3.58
2022-10-17T16:07:46.400Z,5.15
2022-10-17T16:10:48.701Z,7.65
2022-10-17T16:13:53.007Z,4.85
2022-10-17T16:16:54.962Z,3.45
2022-10-17T16:19:56.957Z,3.75
2022-10-17T16:23:02.553Z,3.10
2022-10-17T16:26:04.831Z,4.50
2022-10-17T16:29:07.066Z,4.03
2022-10-17T16:32:09.891Z,7.93
2022-10-17T16:35:17.077Z,14.70
2022-10-17T16:38:19.044Z,13.85
2022-10-17T16:41:24.074Z,13.80
2022-10-17T16:44:26.109Z,12.75
2022-10-17T16:47:28.235Z,14.35
2022-10-17T16:50:31.437Z,11.10
2022-10-17T16:53:33.624Z,9.52
2022-10-17T16:56:35.680Z,6.40
2022-10-17T16:59:37.817Z,4.93
2022-10-17T17:02:39.815Z,7.53
2022-10-17T17:05:41.971Z,4.88
2022-10-17T17:08:43.978Z,5.63
2022-10-17T17:11:46.603Z,8.23
2022-10-17T17:14:49.153Z,9.52
2022-10-17T17:17:55.260Z,18.50
2022-10-17T17:21:00.455Z,10.85
2022-10-17T17:24:05.131Z,18.65
2022-10-17T17:27:09.965Z,10.18
2022-10-17T17:30:15.781Z,9.63
2022-10-17T17:33:24.364Z,10.93
2022-10-17T17:36:36.952Z,10.18
2022-10-17T17:39:42.709Z,10.82
2022-10-17T17:42:47.006Z,11.10
2022-10-17T17:45:49.410Z,10.55
2022-10-17T17:48:52.516Z,11.00
2022-10-17T17:51:54.864Z,11.70
2022-10-17T17:54:57.775Z,7.97
2022-10-17T17:58:00.143Z,7.80
2022-10-17T18:01:09.185Z,8.55
2022-10-17T18:04:12.334Z,8.50
2022-10-17T18:07:14.753Z,14.93
2022-10-17T18:10:17.335Z,14.23
2022-10-17T18:13:22.237Z,11.90
2022-10-17T18:16:25.731Z,7.57
2022-10-17T18:19:28.772Z,8.35
2022-10-17T18:22:31.594Z,11.65
2022-10-17T18:25:34.552Z,13.88
2022-10-17T18:28:38.881Z,13.73
2022-10-17T18:31:41.250Z,14.02
2022-10-17T18:34:44.048Z,19.25
2022-10-17T18:37:46.451Z,16.02
2022-10-17T18:40:50.734Z,15.48
2022-10-17T18:43:57.934Z,18.95
2022-10-17T18:47:03.931Z,17.17
2022-10-17T18:50:07.088Z,9.60
2022-10-17T18:53:09.707Z,6.18
2022-10-17T18:56:13.026Z,6.93
2022-10-17T18:59:15.695Z,4.93
2022-10-17T19:02:17.912Z,4.72
2022-10-17T19:05:20.222Z,6.10
2022-10-17T19:08:23.278Z,5.90
2022-10-17T19:11:27.504Z,5.90
2022-10-17T19:14:30.854Z,6.15
2022-10-17T19:17:33.698Z,5.30
2022-10-17T19:20:36.299Z,4.72
2022-10-17T19:23:38.983Z,5.13
2022-10-17T19:26:43.199Z,4.55
2022-10-17T19:29:45.672Z,4.10
2022-10-17T19:32:49.689Z,4.20
2022-10-17T19:36:00.056Z,4.50
2022-10-17T19:39:06.053Z,3.67
2022-10-17T19:42:08.369Z,4.57
2022-10-17T19:45:11.109Z,4.40
2022-10-17T19:48:13.148Z,4.82
2022-10-17T19:51:16.888Z,4.38
2022-10-17T19:54:20.462Z,4.93
2022-10-17T19:57:23.453Z,4.97
2022-10-17T20:00:26.074Z,4.75
2022-10-17T20:03:29.724Z,5.47
2022-10-17T20:06:33.829Z,4.90
2022-10-17T20:09:36.123Z,5.30
2022-10-17T20:12:38.713Z,5.07
2022-10-17T20:15:41.157Z,3.88
2022-10-17T20:18:44.105Z,3.90
2022-10-17T20:21:45.994Z,3.58
2022-10-17T20:24:49.129Z,3.78
2022-10-17T20:27:52.066Z,4.28
2022-10-17T20:30:54.455Z,4.32
2022-10-17T20:33:57.769Z,3.45
2022-10-17T20:36:59.700Z,3.83
2022-10-17T20:40:32.870Z,4.30
2022-10-17T20:43:24.669Z,3.88
2022-10-17T20:46:36.754Z,4.20
2022-10-17T20:49:39.424Z,3.72
2022-10-17T20:52:41.517Z,3.47
2022-10-17T20:55:44.302Z,3.20
2022-10-17T20:58:51.243Z,3.78
2022-10-17T21:01:54.492Z,3.35
2022-10-17T21:04:56.699Z,3.38
2022-10-17T21:07:58.516Z,3.53
2022-10-17T21:11:17.942Z,3.13
2022-10-17T21:14:20.007Z,5.40
2022-10-17T21:17:22.491Z,7.20
2022-10-17T21:20:24.496Z,5.97
2022-10-17T21:23:26.580Z,4.50
2022-10-17T21:26:29.555Z,4.97
2022-10-17T21:29:31.482Z,4.90
2022-10-17T21:32:51.155Z,3.90
2022-10-17T21:35:55.260Z,5.00
2022-10-17T21:38:58.337Z,3.35
2022-10-17T21:42:00.410Z,3.42
2022-10-17T21:45:04.759Z,3.28
2022-10-17T21:48:13.486Z,3.80
2022-10-17T21:51:17.399Z,4.28
2022-10-17T21:54:20.138Z,3.63
2022-10-17T21:57:22.698Z,8.88
2022-10-17T22:00:24.797Z,8.77
2022-10-17T22:03:26.625Z,3.10
2022-10-17T22:06:39.673Z,3.40
2022-10-17T22:09:42.819Z,4.40
2022-10-17T22:12:44.565Z,3.15
2022-10-17T22:15:46.353Z,3.80
2022-10-17T22:18:48.169Z,3.25
2022-10-17T22:21:50.934Z,3.08
2022-10-17T22:24:53.049Z,2.92
2022-10-17T22:27:54.835Z,3.40
2022-10-17T22:30:57.706Z,2.25
2022-10-17T22:33:59.630Z,2.60
2022-10-17T22:37:01.450Z,2.67
2022-10-17T22:40:05.004Z,3.38
2022-10-17T22:43:06.771Z,2.60
2022-10-17T22:46:17.373Z,2.80
2022-10-17T22:49:19.182Z,2.63
2022-10-17T22:52:21.305Z,2.80
2022-10-17T22:55:23.140Z,2.28
2022-10-17T22:58:25.499Z,2.65
2022-10-17T23:01:27.717Z,2.40
2022-10-17T23:04:29.454Z,1.90
2022-10-17T23:07:31.380Z,2.33
2022-10-17T23:10:33.655Z,2.17
2022-10-17T23:13:35.842Z,2.00
2022-10-17T23:16:37.908Z,2.50
2022-10-17T23:19:40.445Z,2.45
2022-10-17T23:22:42.953Z,1.90
2022-10-17T23:25:45.057Z,2.78
2022-10-17T23:28:46.959Z,2.72
2022-10-17T23:31:50.395Z,2.95
2022-10-17T23:34:52.185Z,2.50
2022-10-17T23:37:54.441Z,2.58
2022-10-17T23:40:56.323Z,2.15
2022-10-17T23:43:58.391Z,3.22
2022-10-17T23:47:00.379Z,2.90
2022-10-17T23:50:02.350Z,3.20
2022-10-17T23:53:04.194Z,2.75
2022-10-17T23:56:07.847Z,2.83
2022-10-17T23:59:09.732Z,2.38
